地図

経路データ

SID SEASON NUMBER BASIN SUBBASIN NAME ISO_TIME NATURE LAT LON WMO_WIND WMO_PRES WMO_AGENCY TRACK_TYPE DIST2LAND LANDFALL IFLAG USA_AGENCY USA_ATCF_ID USA_LAT USA_LON USA_RECORD USA_STATUS USA_WIND USA_PRES USA_SSHS USA_R34_NE USA_R34_SE USA_R34_SW USA_R34_NW USA_R50_NE USA_R50_SE USA_R50_SW USA_R50_NW USA_R64_NE USA_R64_SE USA_R64_SW USA_R64_NW USA_POCI USA_ROCI USA_RMW USA_EYE TOKYO_LAT TOKYO_LON TOKYO_GRADE TOKYO_WIND TOKYO_PRES TOKYO_R50_DIR TOKYO_R50_LONG TOKYO_R50_SHORT TOKYO_R30_DIR TOKYO_R30_LONG TOKYO_R30_SHORT TOKYO_LAND CMA_LAT CMA_LON CMA_CAT CMA_WIND CMA_PRES HKO_LAT HKO_LON HKO_CAT HKO_WIND HKO_PRES NEWDELHI_LAT NEWDELHI_LON NEWDELHI_GRADE NEWDELHI_WIND NEWDELHI_PRES NEWDELHI_CI NEWDELHI_DP NEWDELHI_POCI REUNION_LAT REUNION_LON REUNION_TYPE REUNION_WIND REUNION_PRES REUNION_TNUM REUNION_CI REUNION_RMW REUNION_R34_NE REUNION_R34_SE REUNION_R34_SW REUNION_R34_NW REUNION_R50_NE REUNION_R50_SE REUNION_R50_SW REUNION_R50_NW REUNION_R64_NE REUNION_R64_SE REUNION_R64_SW REUNION_R64_NW BOM_LAT BOM_LON BOM_TYPE BOM_WIND BOM_PRES BOM_TNUM BOM_CI BOM_RMW BOM_R34_NE BOM_R34_SE BOM_R34_SW BOM_R34_NW BOM_R50_NE BOM_R50_SE BOM_R50_SW BOM_R50_NW BOM_R64_NE BOM_R64_SE BOM_R64_SW BOM_R64_NW BOM_ROCI BOM_POCI BOM_EYE BOM_POS_METHOD BOM_PRES_METHOD NADI_LAT NADI_LON NADI_CAT NADI_WIND NADI_PRES WELLINGTON_LAT WELLINGTON_LON WELLINGTON_WIND WELLINGTON_PRES DS824_LAT DS824_LON DS824_STAGE DS824_WIND DS824_PRES TD9636_LAT TD9636_LON TD9636_STAGE TD9636_WIND TD9636_PRES TD9635_LAT TD9635_LON TD9635_WIND TD9635_PRES TD9635_ROCI NEUMANN_LAT NEUMANN_LON NEUMANN_CLASS NEUMANN_WIND NEUMANN_PRES MLC_LAT MLC_LON MLC_CLASS MLC_WIND MLC_PRES USA_GUST BOM_GUST BOM_GUST_PER REUNION_GUST REUNION_GUST_PER USA_SEAHGT USA_SEARAD_NE USA_SEARAD_SE USA_SEARAD_SW USA_SEARAD_NW STORM_SPEED STORM_DIR
1944356S14052 1945 86 SI MM NOT_NAMED 1944-12-21 06:00:00 NR -14.3000 52.0000 reunion main 190 190 _____O________ -1 -14.3000 52.0000 99 9.90000 1 122
1944356S14052 1945 86 SI MM NOT_NAMED 1944-12-21 09:00:00 NR -14.3298 52.0414 main 190 190 _____P________ -1 -14.3298 52.0414 99 1 128
1944356S14052 1945 86 SI MM NOT_NAMED 1944-12-21 12:00:00 NR -14.3639 52.0848 main 193 193 _____P________ -1 -14.3639 52.0848 99 1 130
1944356S14052 1945 86 SI MM NOT_NAMED 1944-12-21 15:00:00 NR -14.4067 52.1322 main 193 193 _____P________ -1 -14.4067 52.1322 99 1 136
1944356S14052 1945 86 SI MM NOT_NAMED 1944-12-21 18:00:00 NR -14.4623 52.1856 main 198 198 _____P________ -1 -14.4623 52.1856 99 2 138
1944356S14052 1945 86 SI MM NOT_NAMED 1944-12-21 21:00:00 NR -14.5352 52.2471 main 198 198 _____P________ -1 -14.5352 52.2471 99 2 142
1944356S14052 1945 86 SI MM NOT_NAMED 1944-12-22 00:00:00 NR -14.6295 52.3186 main 204 201 _____P________ -1 -14.6295 52.3186 99 3 146
1944356S14052 1945 86 SI MM NOT_NAMED 1944-12-22 03:00:00 NR -14.7497 52.4022 main 211 209 _____P________ -1 -14.7497 52.4022 99 3 147
1944356S14052 1945 86 SI MM NOT_NAMED 1944-12-22 06:00:00 NR -14.9000 52.5000 reunion main 217 215 _____O________ -1 -14.9000 52.5000 99 9.90000 4 148
1944356S14052 1945 86 SI MM NOT_NAMED 1944-12-22 09:00:00 NR -15.0831 52.6132 main 225 225 _____P________ -1 -15.0831 52.6132 99 5 150
1944356S14052 1945 86 SI MM NOT_NAMED 1944-12-22 12:00:00 NR -15.2955 52.7395 main 236 236 _____P________ -1 -15.2955 52.7395 99 5 151
1944356S14052 1945 86 SI MM NOT_NAMED 1944-12-22 15:00:00 NR -15.5321 52.8759 main 257 257 _____P________ -1 -15.5321 52.8759 99 6 151
1944356S14052 1945 86 SI MM NOT_NAMED 1944-12-22 18:00:00 NR -15.7878 53.0193 main 271 271 _____P________ -1 -15.7878 53.0193 99 6 152
1944356S14052 1945 86 SI MM NOT_NAMED 1944-12-22 21:00:00 NR -16.0576 53.1666 main 299 299 _____P________ -1 -16.0576 53.1666 99 6 153
1944356S14052 1945 86 SI MM NOT_NAMED 1944-12-23 00:00:00 NR -16.3362 53.3146 main 316 316 _____P________ -1 -16.3362 53.3146 99 6 153
1944356S14052 1945 86 SI MM NOT_NAMED 1944-12-23 03:00:00 NR -16.6187 53.4601 main 347 347 _____P________ -1 -16.6187 53.4601 99 6 154
1944356S14052 1945 86 SI MM NOT_NAMED 1944-12-23 06:00:00 NR -16.9000 53.6000 reunion main 371 371 _____O________ -1 -16.9000 53.6000 99 9.90000 6 155
1944356S14052 1945 86 SI MM NOT_NAMED 1944-12-23 09:00:00 NR -17.1425 53.7204 main 390 390 _____P________ -1 -17.1425 53.7204 99 5 155
1944356S14052 1945 86 SI MM NOT_NAMED 1944-12-23 12:00:00 NR -17.3852 53.8363 main 413 407 _____P________ -1 -17.3852 53.8363 99 5 156
1944356S14052 1945 86 SI MM NOT_NAMED 1944-12-23 15:00:00 NR -17.6309 53.9487 main 407 368 _____P________ -1 -17.6309 53.9487 99 5 157
1944356S14052 1945 86 SI MM NOT_NAMED 1944-12-23 18:00:00 NR -17.8823 54.0589 main 368 344 _____P________ -1 -17.8823 54.0589 99 6 158
1944356S14052 1945 86 SI MM NOT_NAMED 1944-12-23 21:00:00 NR -18.1422 54.1680 main 344 309 _____P________ -1 -18.1422 54.1680 99 6 159
1944356S14052 1945 86 SI MM NOT_NAMED 1944-12-24 00:00:00 NR -18.4133 54.2771 main 309 273 _____P________ -1 -18.4133 54.2771 99 6 159
1944356S14052 1945 86 SI MM NOT_NAMED 1944-12-24 03:00:00 NR -18.6983 54.3873 main 273 238 _____P________ -1 -18.6983 54.3873 99 6 160
1944356S14052 1945 86 SI MM NOT_NAMED 1944-12-24 06:00:00 NR -19.0000 54.5000 reunion main 238 203 _____O________ -1 -19.0000 54.5000 99 9.90000 7 160
1944356S14052 1945 86 SI MM NOT_NAMED 1944-12-24 09:00:00 NR -19.3139 54.6224 main 203 168 _____P________ -1 -19.3139 54.6224 99 7 160
1944356S14052 1945 86 SI MM NOT_NAMED 1944-12-24 12:00:00 NR -19.6433 54.7472 main 168 119 _____P________ -1 -19.6433 54.7472 99 7 161
1944356S14052 1945 86 SI MM NOT_NAMED 1944-12-24 15:00:00 NR -19.9873 54.8735 main 119 84 _____P________ -1 -19.9873 54.8735 99 7 161
1944356S14052 1945 86 SI MM NOT_NAMED 1944-12-24 18:00:00 NR -20.3453 55.0006 main 84 39 _____P________ -1 -20.3453 55.0006 99 8 162
1944356S14052 1945 86 SI MM NOT_NAMED 1944-12-24 21:00:00 NR -20.7163 55.1276 main 39 0 _____P________ -1 -20.7163 55.1276 99 8 163
1944356S14052 1945 86 SI MM NOT_NAMED 1944-12-25 00:00:00 NR -21.0996 55.2537 main 0 0 _____P________ -1 -21.0996 55.2537 99 8 163
1944356S14052 1945 86 SI MM NOT_NAMED 1944-12-25 03:00:00 NR -21.4944 55.3781 main 22 22 _____P________ -1 -21.4944 55.3781 99 8 164
1944356S14052 1945 86 SI MM NOT_NAMED 1944-12-25 06:00:00 NR -21.9000 55.5000 reunion main 56 56 _____O________ -1 -21.9000 55.5000 99 9.90000 9 165
1944356S14052 1945 86 SI MM NOT_NAMED 1944-12-25 09:00:00 NR -22.3155 55.6188 main 100 100 _____P________ -1 -22.3155 55.6188 99 9 165
1944356S14052 1945 86 SI MM NOT_NAMED 1944-12-25 12:00:00 NR -22.7398 55.7347 main 145 145 _____P________ -1 -22.7398 55.7347 99 9 166
1944356S14052 1945 86 SI MM NOT_NAMED 1944-12-25 15:00:00 NR -23.1717 55.8483 main 202 202 _____P________ -1 -23.1717 55.8483 99 9 167
1944356S14052 1945 86 SI MM NOT_NAMED 1944-12-25 18:00:00 NR -23.6099 55.9602 main 249 249 _____P________ -1 -23.6099 55.9602 99 9 167
1944356S14052 1945 86 SI MM NOT_NAMED 1944-12-25 21:00:00 NR -24.0531 56.0708 main 306 306 _____P________ -1 -24.0531 56.0708 99 9 167
1944356S14052 1945 86 SI MM NOT_NAMED 1944-12-26 00:00:00 NR -24.5001 56.1806 main 351 351 _____P________ -1 -24.5001 56.1806 99 9 168
1944356S14052 1945 86 SI MM NOT_NAMED 1944-12-26 03:00:00 NR -24.9495 56.2902 main 397 397 _____P________ -1 -24.9495 56.2902 99 9 168
1944356S14052 1945 86 SI MM NOT_NAMED 1944-12-26 06:00:00 NR -25.4000 56.4000 reunion main 454 _____O________ -1 -25.4000 56.4000 99 9.90000 9 168

IBTrACS Databaseについて

本データベースは、米国NOAAが公開する1842年以降の世界の熱帯低気圧のベストトラックデータアーカイブInternational Best Track Archive for Climate Stewardship (IBTrACS)を、ウェブで閲覧しやすい形式に変換したものです。

最終更新日:2021-10-25